Terminal Aerodrome Forecast
Issued by NWS

Home | Current Version | Previous Version | Text Only | Print | Product List | Glossary On
Versions: 1 2 3 4 5 6 7 8 9 10 11 12 13 14 15 16 17 18 19 20 21 22
000
FTUS43 KDLH 111100
TAFHYR
TAF
KHYR 111137Z 1112/1212 19008KT 5SM -RA BR OVC080
      TEMPO 1112/1114 4SM -TSRA BKN035CB OVC050
     FM111400 19012KT P6SM SCT035 BKN100
     FM111800 19012G18KT P6SM SCT035 BKN080
     FM112100 20007KT P6SM SCT025 BKN060 PROB30 1200/1206 P6SM TS
      BKN015CB
     FM120600 21003KT 4SM BR SCT080=

USA.gov is the U.S. government's official web portal to all federal, state and local government web resources and services.